Cerejeira, Brazil
Current Conditions -  °F | °C
As of 5:00 PM on Saturday 22 Nov 2014 (Local Time) from SBVH Reporting Station
Scattered Clouds Scattered Clouds  
Wind Chill: 27°   Ceiling: Unl
Heat Index: 30°   Visibility: 6mi
Dew Point: 23°   Wind: 2mph
Humidity: 79%   Direction: 210°SSW
Pressure: 29.83"   Gusts: NA
Location:  13.19°S, 60.81°W
Report Text: SBVH 222100Z 21002KT 9999 FEW020 SCT080 27/23 Q1010
Loading
Personal Weather Stations






























Interactive Weather Map New forecast layout! Learn more

10-Day Weather Forecast

Advertisements
Track Severe Weather on mobile